createdAt,value
2023-04-09T00:00:03.408Z,6.63
2023-04-09T00:02:32.953Z,6.70
2023-04-09T00:05:02.766Z,6.40
2023-04-09T00:07:30.778Z,6.60
2023-04-09T00:09:58.632Z,6.17
2023-04-09T00:12:26.566Z,6.50
2023-04-09T00:14:54.456Z,6.53
2023-04-09T00:17:23.765Z,5.87
2023-04-09T00:19:51.708Z,6.13
2023-04-09T00:22:19.614Z,6.53
2023-04-09T00:24:47.460Z,6.37
2023-04-09T00:27:15.410Z,6.00
2023-04-09T00:29:43.351Z,6.57
2023-04-09T00:32:11.226Z,6.00
2023-04-09T00:34:40.527Z,6.30
2023-04-09T00:37:08.356Z,5.70
2023-04-09T00:39:36.299Z,5.80
2023-04-09T00:42:04.265Z,6.47
2023-04-09T00:44:32.178Z,6.00
2023-04-09T00:47:00.687Z,6.70
2023-04-09T00:49:28.841Z,6.40
2023-04-09T00:51:58.454Z,5.60
2023-04-09T00:54:26.412Z,6.37
2023-04-09T00:56:54.702Z,6.43
2023-04-09T00:59:23.121Z,5.87
2023-04-09T01:01:51.133Z,5.93
2023-04-09T01:04:19.342Z,5.97
2023-04-09T01:06:52.523Z,5.70
2023-04-09T01:09:28.884Z,5.77
2023-04-09T01:12:06.802Z,5.80
2023-04-09T01:14:40.121Z,5.63
2023-04-09T01:17:13.562Z,6.00
2023-04-09T01:19:48.602Z,6.10
2023-04-09T01:22:32.336Z,6.17
2023-04-09T01:25:16.304Z,5.60
2023-04-09T01:27:54.817Z,6.00
2023-04-09T01:30:24.189Z,5.40
2023-04-09T01:32:53.921Z,5.53
2023-04-09T01:35:22.681Z,6.03
2023-04-09T01:37:51.587Z,5.20
2023-04-09T01:40:19.678Z,5.43
2023-04-09T01:42:49.958Z,5.97
2023-04-09T01:45:18.267Z,5.40
2023-04-09T01:47:47.961Z,6.00
2023-04-09T01:50:16.296Z,6.13
2023-04-09T01:52:44.590Z,5.93
2023-04-09T01:55:12.458Z,6.17
2023-04-09T01:57:40.417Z,5.80
2023-04-09T02:00:10.385Z,5.60
2023-04-09T02:02:43.954Z,6.33
2023-04-09T02:05:16.609Z,5.70
2023-04-09T02:07:48.634Z,6.27
2023-04-09T02:10:18.181Z,6.40
2023-04-09T02:12:52.217Z,5.90
2023-04-09T02:15:21.247Z,5.73
2023-04-09T02:17:49.344Z,5.97
2023-04-09T02:20:19.813Z,6.47
2023-04-09T02:22:47.827Z,6.07
2023-04-09T02:25:16.053Z,6.27
2023-04-09T02:27:43.927Z,6.13
2023-04-09T02:30:12.245Z,5.87
2023-04-09T02:32:40.190Z,6.20
2023-04-09T02:35:08.937Z,5.70
2023-04-09T02:37:38.174Z,6.67
2023-04-09T02:40:06.749Z,6.53
2023-04-09T02:42:34.691Z,6.47
2023-04-09T02:45:02.785Z,6.50
2023-04-09T02:47:30.700Z,6.67
2023-04-09T02:49:58.668Z,6.23
2023-04-09T02:52:26.701Z,6.67
2023-04-09T02:54:55.976Z,6.63
2023-04-09T02:57:23.880Z,6.07
2023-04-09T02:59:51.860Z,7.10
2023-04-09T03:02:19.859Z,6.53
2023-04-09T03:04:47.846Z,7.03
2023-04-09T03:07:15.720Z,6.50
2023-04-09T03:09:43.613Z,7.23
2023-04-09T03:12:12.800Z,7.37
2023-04-09T03:14:40.754Z,7.07
2023-04-09T03:17:08.687Z,7.73
2023-04-09T03:19:36.604Z,6.40
2023-04-09T03:22:04.490Z,7.20
2023-04-09T03:24:32.984Z,6.97
2023-04-09T03:27:00.862Z,7.40
2023-04-09T03:29:30.101Z,7.07
2023-04-09T03:31:57.978Z,7.90
2023-04-09T03:34:25.951Z,7.57
2023-04-09T03:36:53.922Z,7.43
2023-04-09T03:39:21.786Z,7.80
2023-04-09T03:41:49.917Z,7.70
2023-04-09T03:44:18.000Z,8.90
2023-04-09T03:46:47.335Z,13.33
2023-04-09T03:49:15.255Z,9.40
2023-04-09T03:51:44.555Z,9.33
2023-04-09T03:54:12.423Z,8.10
2023-04-09T03:56:40.391Z,8.77
2023-04-09T03:59:08.353Z,8.50
2023-04-09T04:01:36.313Z,8.47
2023-04-09T04:04:05.701Z,8.07
2023-04-09T04:06:35.575Z,8.70
2023-04-09T04:09:03.518Z,9.43
2023-04-09T04:11:31.414Z,8.37
2023-04-09T04:13:59.271Z,8.53
2023-04-09T04:16:27.171Z,8.27
2023-04-09T04:18:55.092Z,8.23
2023-04-09T04:21:24.496Z,7.80
2023-04-09T04:23:52.348Z,8.50
2023-04-09T04:26:20.455Z,8.40
2023-04-09T04:28:48.356Z,7.80
2023-04-09T04:31:16.318Z,8.23
2023-04-09T04:33:44.688Z,8.70
2023-04-09T04:36:14.187Z,8.73
2023-04-09T04:38:43.809Z,8.03
2023-04-09T04:41:12.890Z,9.07
2023-04-09T04:43:41.622Z,9.10
2023-04-09T04:46:09.633Z,8.63
2023-04-09T04:48:37.532Z,8.43
2023-04-09T04:51:05.835Z,9.17
2023-04-09T04:53:33.833Z,8.57
2023-04-09T04:56:03.136Z,8.73
2023-04-09T04:58:31.570Z,8.70
2023-04-09T05:01:00.439Z,9.07
2023-04-09T05:03:28.587Z,8.67
2023-04-09T05:05:56.511Z,9.27
2023-04-09T05:08:24.409Z,8.33
2023-04-09T05:10:56.050Z,9.43
2023-04-09T05:13:25.991Z,9.47
2023-04-09T05:15:53.905Z,9.20
2023-04-09T05:18:21.794Z,9.30
2023-04-09T05:20:49.661Z,9.50
2023-04-09T05:23:17.528Z,9.40
2023-04-09T05:25:45.412Z,9.00
2023-04-09T05:28:13.262Z,9.03
2023-04-09T05:30:42.534Z,8.97
2023-04-09T05:33:10.503Z,9.17
2023-04-09T05:35:40.018Z,10.13
2023-04-09T05:38:08.094Z,9.10
2023-04-09T05:40:36.496Z,8.83
2023-04-09T05:43:04.427Z,8.67
2023-04-09T05:45:32.308Z,9.13
2023-04-09T05:48:01.774Z,8.73
2023-04-09T05:50:29.734Z,9.57
2023-04-09T05:52:57.708Z,9.17
2023-04-09T05:55:25.715Z,8.03
2023-04-09T05:57:58.660Z,7.60
2023-04-09T06:00:26.681Z,7.93
2023-04-09T06:02:54.765Z,8.87
2023-04-09T06:05:24.037Z,9.87
2023-04-09T06:07:52.006Z,8.70
2023-04-09T06:10:22.781Z,8.33
2023-04-09T06:12:50.784Z,8.10
2023-04-09T06:15:18.937Z,8.43
2023-04-09T06:17:46.888Z,8.77
2023-04-09T06:20:14.893Z,8.17
2023-04-09T06:22:44.184Z,9.03
2023-04-09T06:25:12.242Z,9.67
2023-04-09T06:27:40.409Z,8.30
2023-04-09T06:30:09.852Z,8.43
2023-04-09T06:32:46.761Z,8.37
2023-04-09T06:35:19.320Z,8.03
2023-04-09T06:37:48.576Z,8.07
2023-04-09T06:40:16.874Z,8.07
2023-04-09T06:42:44.843Z,7.40
2023-04-09T06:45:13.006Z,7.23
2023-04-09T06:47:41.098Z,6.97
2023-04-09T06:50:09.935Z,7.60
2023-04-09T06:52:38.281Z,7.97
2023-04-09T06:55:08.406Z,7.77
2023-04-09T06:57:36.402Z,7.80
2023-04-09T07:00:04.555Z,7.20
2023-04-09T07:02:32.680Z,6.60
2023-04-09T07:05:00.947Z,6.43
2023-04-09T07:07:28.854Z,6.50
2023-04-09T07:09:56.735Z,7.30
2023-04-09T07:12:29.403Z,7.13
2023-04-09T07:14:59.281Z,6.97
2023-04-09T07:17:27.230Z,6.77
2023-04-09T07:19:55.389Z,6.70
2023-04-09T07:22:23.765Z,6.20
2023-04-09T07:24:54.396Z,6.57
2023-04-09T07:27:23.319Z,6.57
2023-04-09T07:29:53.080Z,7.77
2023-04-09T07:32:21.283Z,5.97
2023-04-09T07:34:49.514Z,5.27
2023-04-09T07:37:17.474Z,5.67
2023-04-09T07:39:45.459Z,5.80
2023-04-09T07:42:13.669Z,5.43
2023-04-09T07:44:41.889Z,5.88
2023-04-09T07:47:11.832Z,5.63
2023-04-09T07:49:39.957Z,5.27
2023-04-09T07:52:08.354Z,5.27
2023-04-09T07:54:36.367Z,7.43
2023-04-09T07:57:04.672Z,5.87
2023-04-09T07:59:32.608Z,5.60
2023-04-09T08:02:00.857Z,5.57
2023-04-09T08:04:30.774Z,5.63
2023-04-09T08:06:58.791Z,6.07
2023-04-09T08:09:26.823Z,5.87
2023-04-09T08:11:54.701Z,5.67
2023-04-09T08:14:22.607Z,6.20
2023-04-09T08:16:51.177Z,5.20
2023-04-09T08:19:20.304Z,6.30
2023-04-09T08:21:49.825Z,7.00
2023-04-09T08:24:18.357Z,6.00
2023-04-09T08:26:46.628Z,6.90
2023-04-09T08:29:16.224Z,6.13
2023-04-09T08:31:44.415Z,6.53
2023-04-09T08:34:13.097Z,5.80
2023-04-09T08:36:41.066Z,6.17
2023-04-09T08:39:10.706Z,6.00
2023-04-09T08:41:43.107Z,6.00
2023-04-09T08:44:11.548Z,6.07
2023-04-09T08:46:39.499Z,6.13
2023-04-09T08:49:09.956Z,5.97
2023-04-09T08:51:39.398Z,6.27
2023-04-09T08:54:08.318Z,6.93
2023-04-09T08:56:37.578Z,5.87
2023-04-09T08:59:05.558Z,6.40
2023-04-09T09:01:33.771Z,5.87
2023-04-09T09:04:04.315Z,5.77
2023-04-09T09:06:33.811Z,6.17
2023-04-09T09:09:07.286Z,6.43
2023-04-09T09:11:35.944Z,6.37
2023-04-09T09:14:07.315Z,6.20
2023-04-09T09:16:40.177Z,6.27
2023-04-09T09:19:08.342Z,7.63
2023-04-09T09:21:38.668Z,6.00
2023-04-09T09:24:19.087Z,6.77
2023-04-09T09:26:47.096Z,6.03
2023-04-09T09:29:16.640Z,5.90
2023-04-09T09:31:50.229Z,6.63
2023-04-09T09:34:18.666Z,6.40
2023-04-09T09:36:47.942Z,5.88
2023-04-09T09:39:17.606Z,6.80
2023-04-09T09:41:46.129Z,6.57
2023-04-09T09:44:31.516Z,6.13
2023-04-09T09:47:04.656Z,5.40
2023-04-09T09:49:32.673Z,5.32
2023-04-09T09:52:03.752Z,5.60
2023-04-09T09:54:40.003Z,5.47
2023-04-09T09:57:10.734Z,5.75
2023-04-09T09:59:41.801Z,6.07
2023-04-09T10:02:19.515Z,5.20
2023-04-09T10:04:51.335Z,5.03
2023-04-09T10:07:21.034Z,4.88
2023-04-09T10:09:52.052Z,5.70
2023-04-09T10:12:23.720Z,5.63
2023-04-09T10:14:52.833Z,5.25
2023-04-09T10:17:22.245Z,5.70
2023-04-09T10:20:02.691Z,5.57
2023-04-09T10:22:34.038Z,4.25
2023-04-09T10:25:02.799Z,4.65
2023-04-09T10:27:31.207Z,4.57
2023-04-09T10:30:00.158Z,4.90
2023-04-09T10:32:36.877Z,4.80
2023-04-09T10:35:05.505Z,5.00
2023-04-09T10:37:33.406Z,5.20
2023-04-09T10:40:01.379Z,4.82
2023-04-09T10:42:34.149Z,4.93
2023-04-09T10:45:09.647Z,4.10
2023-04-09T10:47:40.605Z,5.00
2023-04-09T10:50:19.769Z,5.70
2023-04-09T10:52:47.742Z,4.55
2023-04-09T10:55:36.259Z,4.70
2023-04-09T10:58:05.313Z,4.40
2023-04-09T11:00:34.166Z,4.85
2023-04-09T11:03:21.725Z,4.80
2023-04-09T11:05:54.016Z,4.70
2023-04-09T11:08:23.315Z,6.65
2023-04-09T11:10:52.335Z,4.53
2023-04-09T11:13:21.980Z,4.35
2023-04-09T11:15:50.337Z,5.10
2023-04-09T11:18:23.355Z,4.25
2023-04-09T11:20:55.065Z,4.65
2023-04-09T11:23:23.119Z,4.82
2023-04-09T11:25:52.171Z,4.75
2023-04-09T11:28:20.701Z,4.30
2023-04-09T11:30:48.779Z,4.68
2023-04-09T11:33:19.624Z,4.70
2023-04-09T11:35:52.240Z,4.15
2023-04-09T11:38:20.142Z,5.25
2023-04-09T11:40:49.528Z,4.80
2023-04-09T11:43:18.479Z,4.20
2023-04-09T11:45:48.691Z,4.40
2023-04-09T11:48:18.695Z,4.50
2023-04-09T11:50:47.915Z,3.67
2023-04-09T11:53:21.371Z,4.50
2023-04-09T11:55:52.315Z,4.28
2023-04-09T11:58:23.693Z,4.65
2023-04-09T12:00:57.292Z,5.03
2023-04-09T12:03:32.977Z,4.32
2023-04-09T12:06:03.204Z,4.75
2023-04-09T12:08:35.077Z,4.30
2023-04-09T12:11:10.610Z,4.25
2023-04-09T12:13:43.607Z,4.85
2023-04-09T12:16:11.883Z,3.90
2023-04-09T12:18:41.342Z,4.28
2023-04-09T12:21:09.304Z,4.45
2023-04-09T12:23:38.552Z,4.60
2023-04-09T12:26:06.450Z,4.97
2023-04-09T12:28:34.369Z,4.70
2023-04-09T12:31:03.574Z,5.18
2023-04-09T12:33:32.259Z,4.63
2023-04-09T12:36:02.582Z,4.15
2023-04-09T12:38:30.503Z,4.10
2023-04-09T12:41:01.315Z,4.63
2023-04-09T12:43:29.334Z,3.90
2023-04-09T12:45:58.036Z,4.47
2023-04-09T12:48:26.528Z,3.72
2023-04-09T12:50:54.477Z,3.42
2023-04-09T12:53:22.385Z,3.65
2023-04-09T12:55:50.297Z,3.85
2023-04-09T12:58:19.557Z,3.90
2023-04-09T13:00:47.399Z,4.40
2023-04-09T13:03:16.850Z,4.05
2023-04-09T13:05:45.051Z,3.60
2023-04-09T13:08:12.919Z,3.45
2023-04-09T13:10:41.057Z,3.67
2023-04-09T13:13:12.172Z,4.40
2023-04-09T13:15:43.596Z,4.20
2023-04-09T13:18:11.535Z,4.15
2023-04-09T13:20:39.615Z,3.72
2023-04-09T13:23:07.737Z,4.10
2023-04-09T13:25:35.764Z,3.38
2023-04-09T13:28:03.674Z,3.78
2023-04-09T13:30:32.214Z,3.45
2023-04-09T13:33:01.584Z,3.42
2023-04-09T13:35:29.973Z,3.58
2023-04-09T13:37:57.855Z,3.40
2023-04-09T13:40:25.903Z,3.55
2023-04-09T13:42:53.888Z,4.10
2023-04-09T13:45:23.990Z,3.40
2023-04-09T13:47:52.254Z,3.65
2023-04-09T13:50:21.741Z,4.05
2023-04-09T13:52:49.648Z,4.20
2023-04-09T13:55:18.016Z,4.10
2023-04-09T13:57:45.989Z,4.40
2023-04-09T14:00:14.897Z,4.10
2023-04-09T14:02:43.081Z,3.47
2023-04-09T14:05:11.354Z,3.70
2023-04-09T14:07:40.647Z,4.05
2023-04-09T14:10:09.722Z,3.67
2023-04-09T14:12:37.675Z,3.80
2023-04-09T14:15:06.451Z,3.78
2023-04-09T14:17:34.400Z,3.70
2023-04-09T14:20:03.881Z,3.60
2023-04-09T14:22:31.795Z,3.90
2023-04-09T14:25:01.268Z,3.50
2023-04-09T14:27:29.274Z,3.78
2023-04-09T14:29:57.240Z,4.00
2023-04-09T14:32:25.234Z,3.95
2023-04-09T14:34:53.722Z,3.47
2023-04-09T14:37:21.655Z,4.10
2023-04-09T14:39:49.529Z,3.47
2023-04-09T14:42:19.135Z,3.70
2023-04-09T14:44:47.014Z,3.33
2023-04-09T14:47:15.595Z,3.60
2023-04-09T14:49:43.562Z,4.05
2023-04-09T14:52:11.555Z,3.60
2023-04-09T14:54:39.477Z,4.05
2023-04-09T14:57:07.469Z,4.03
2023-04-09T14:59:37.480Z,3.97
2023-04-09T15:02:05.969Z,3.58
2023-04-09T15:04:34.044Z,4.13
2023-04-09T15:07:02.126Z,3.75
2023-04-09T15:09:30.322Z,3.70
2023-04-09T15:11:58.275Z,3.50
2023-04-09T15:14:29.106Z,3.67
2023-04-09T15:16:58.395Z,3.50
2023-04-09T15:19:26.587Z,3.30
2023-04-09T15:21:54.614Z,3.55
2023-04-09T15:24:22.727Z,3.42
2023-04-09T15:26:51.154Z,3.53
2023-04-09T15:29:18.978Z,3.55
2023-04-09T15:31:46.828Z,3.78
2023-04-09T15:34:16.067Z,3.40
2023-04-09T15:36:43.927Z,3.47
2023-04-09T15:39:11.853Z,3.92
2023-04-09T15:41:40.771Z,4.15
2023-04-09T15:44:09.241Z,3.83
2023-04-09T15:46:39.815Z,3.75
2023-04-09T15:49:08.600Z,3.85
2023-04-09T15:51:38.613Z,4.03
2023-04-09T15:54:06.458Z,4.18
2023-04-09T15:56:36.525Z,5.00
2023-04-09T15:59:05.464Z,5.30
2023-04-09T16:01:35.160Z,5.57
2023-04-09T16:04:03.648Z,5.90
2023-04-09T16:06:32.928Z,6.13
2023-04-09T16:09:02.287Z,5.55
2023-04-09T16:11:30.830Z,5.40
2023-04-09T16:13:59.119Z,5.03
2023-04-09T16:16:27.122Z,4.85
2023-04-09T16:18:55.214Z,4.95
2023-04-09T16:21:23.893Z,4.88
2023-04-09T16:23:51.918Z,5.03
2023-04-09T16:26:21.933Z,5.07
2023-04-09T16:28:50.933Z,4.90
2023-04-09T16:31:20.416Z,5.07
2023-04-09T16:33:48.334Z,5.07
2023-04-09T16:36:16.497Z,4.80
2023-04-09T16:38:44.492Z,4.90
2023-04-09T16:41:12.337Z,5.03
2023-04-09T16:43:41.564Z,5.05
2023-04-09T16:46:10.902Z,4.63
2023-04-09T16:48:41.745Z,4.97
2023-04-09T16:51:11.243Z,5.17
2023-04-09T16:53:40.136Z,5.80
2023-04-09T16:56:08.993Z,5.35
2023-04-09T16:58:36.906Z,5.37
2023-04-09T17:01:06.727Z,5.50
2023-04-09T17:03:34.828Z,5.40
2023-04-09T17:06:04.459Z,5.93
2023-04-09T17:08:32.393Z,5.70
2023-04-09T17:11:03.568Z,6.00
2023-04-09T17:13:32.615Z,5.67
2023-04-09T17:16:00.579Z,6.27
2023-04-09T17:18:30.176Z,5.87
2023-04-09T17:20:59.301Z,6.13
2023-04-09T17:23:27.308Z,6.20
2023-04-09T17:25:55.309Z,6.60
2023-04-09T17:28:23.194Z,6.45
2023-04-09T17:30:51.145Z,6.22
2023-04-09T17:33:19.063Z,6.70
2023-04-09T17:35:48.386Z,6.27
2023-04-09T17:38:21.159Z,6.93
2023-04-09T17:40:49.181Z,6.70
2023-04-09T17:43:17.597Z,8.03
2023-04-09T17:45:45.833Z,7.60
2023-04-09T17:48:13.734Z,7.53
2023-04-09T17:50:42.988Z,7.73
2023-04-09T17:53:12.802Z,8.20
2023-04-09T17:55:45.940Z,8.63
2023-04-09T17:58:13.770Z,8.67
2023-04-09T18:00:41.681Z,8.20
2023-04-09T18:03:09.905Z,8.50
2023-04-09T18:05:38.222Z,8.63
2023-04-09T18:08:07.321Z,8.53
2023-04-09T18:10:37.033Z,8.63
2023-04-09T18:13:05.009Z,8.37
2023-04-09T18:15:32.986Z,8.67
2023-04-09T18:18:01.591Z,8.83
2023-04-09T18:20:29.866Z,8.73
2023-04-09T18:22:57.751Z,8.60
2023-04-09T18:25:25.615Z,8.13
2023-04-09T18:27:54.976Z,8.13
2023-04-09T18:30:23.454Z,7.80
2023-04-09T18:32:51.875Z,8.27
2023-04-09T18:35:20.293Z,7.57
2023-04-09T18:37:51.364Z,7.53
2023-04-09T18:40:20.321Z,7.80
2023-04-09T18:42:51.803Z,8.17
2023-04-09T18:45:22.893Z,7.60
2023-04-09T18:47:50.933Z,7.37
2023-04-09T18:50:19.057Z,7.67
2023-04-09T18:52:47.286Z,7.37
2023-04-09T18:55:16.326Z,8.27
2023-04-09T18:57:44.651Z,7.80
2023-04-09T19:00:14.037Z,7.70
2023-04-09T19:02:43.923Z,8.10
2023-04-09T19:05:12.406Z,7.90
2023-04-09T19:07:40.359Z,8.00
2023-04-09T19:10:08.808Z,7.57
2023-04-09T19:12:36.720Z,8.07
2023-04-09T19:15:06.266Z,7.63
2023-04-09T19:17:34.304Z,7.40
2023-04-09T19:20:04.391Z,7.43
2023-04-09T19:22:33.492Z,6.87
2023-04-09T19:25:01.405Z,6.60
2023-04-09T19:27:29.625Z,6.77
2023-04-09T19:29:58.895Z,6.23
2023-04-09T19:32:26.882Z,6.53
2023-04-09T19:34:54.957Z,6.30
2023-04-09T19:37:27.493Z,6.20
2023-04-09T19:39:55.536Z,6.17
2023-04-09T19:42:23.440Z,10.67
2023-04-09T19:44:51.741Z,6.20
2023-04-09T19:47:19.764Z,5.63
2023-04-09T19:49:48.230Z,6.10
2023-04-09T19:52:16.102Z,5.50
2023-04-09T19:54:45.319Z,9.93
2023-04-09T19:57:13.206Z,11.43
2023-04-09T19:59:42.079Z,5.97
2023-04-09T20:02:10.050Z,6.17
2023-04-09T20:04:38.007Z,5.97
2023-04-09T20:07:06.228Z,6.10
2023-04-09T20:09:34.309Z,5.97
2023-04-09T20:12:07.014Z,6.40
2023-04-09T20:14:34.907Z,6.23
2023-04-09T20:17:03.243Z,5.87
2023-04-09T20:19:31.201Z,9.90
2023-04-09T20:22:00.048Z,8.53
2023-04-09T20:24:28.297Z,5.90
2023-04-09T20:26:57.536Z,5.63
2023-04-09T20:29:26.822Z,6.17
2023-04-09T20:31:54.848Z,5.40
2023-04-09T20:34:26.768Z,5.53
2023-04-09T20:36:55.041Z,5.23
2023-04-09T20:39:25.026Z,5.47
2023-04-09T20:41:52.994Z,5.70
2023-04-09T20:44:21.504Z,5.57
2023-04-09T20:46:50.931Z,5.77
2023-04-09T20:49:19.009Z,6.00
2023-04-09T20:51:46.886Z,5.37
2023-04-09T20:54:14.785Z,6.90
2023-04-09T20:56:43.759Z,7.60
2023-04-09T20:59:11.692Z,6.10
2023-04-09T21:01:39.729Z,6.03
2023-04-09T21:04:09.690Z,5.87
2023-04-09T21:06:37.781Z,5.80
2023-04-09T21:09:05.749Z,5.37
2023-04-09T21:11:33.629Z,5.90
2023-04-09T21:14:02.080Z,6.27
2023-04-09T21:16:31.022Z,6.30
2023-04-09T21:19:06.842Z,6.47
2023-04-09T21:21:36.295Z,5.87
2023-04-09T21:24:04.378Z,5.50
2023-04-09T21:26:48.731Z,5.33
2023-04-09T21:29:18.555Z,5.70
2023-04-09T21:31:46.533Z,5.50
2023-04-09T21:34:14.402Z,5.37
2023-04-09T21:36:45.424Z,5.63
2023-04-09T21:39:13.780Z,5.43
2023-04-09T21:41:41.864Z,5.30
2023-04-09T21:44:09.760Z,5.63
2023-04-09T21:46:40.551Z,5.30
2023-04-09T21:49:08.979Z,5.17
2023-04-09T21:51:37.477Z,5.20
2023-04-09T21:54:08.167Z,4.60
2023-04-09T21:56:36.937Z,5.97
2023-04-09T21:59:05.349Z,5.27
2023-04-09T22:01:34.442Z,5.03
2023-04-09T22:04:03.602Z,5.10
2023-04-09T22:06:32.307Z,5.00
2023-04-09T22:09:00.627Z,4.90
2023-04-09T22:11:30.605Z,5.20
2023-04-09T22:13:58.974Z,5.53
2023-04-09T22:16:27.535Z,5.10
2023-04-09T22:18:56.454Z,5.30
2023-04-09T22:21:24.772Z,5.60
2023-04-09T22:23:52.721Z,5.10
2023-04-09T22:26:21.645Z,5.40
2023-04-09T22:28:51.649Z,5.80
2023-04-09T22:31:19.970Z,5.27
2023-04-09T22:33:47.954Z,6.03
2023-04-09T22:36:15.906Z,4.90
2023-04-09T22:38:43.837Z,5.50
2023-04-09T22:41:11.791Z,5.30
2023-04-09T22:43:39.630Z,5.40
2023-04-09T22:46:08.967Z,4.97
2023-04-09T22:48:44.125Z,5.40
2023-04-09T22:51:13.768Z,5.33
2023-04-09T22:53:41.658Z,5.20
2023-04-09T22:56:10.038Z,4.60
2023-04-09T22:58:37.864Z,4.60
2023-04-09T23:01:05.918Z,5.40
2023-04-09T23:03:35.223Z,5.33
2023-04-09T23:06:03.196Z,5.53
2023-04-09T23:08:31.253Z,4.67
2023-04-09T23:10:59.104Z,4.70
2023-04-09T23:13:27.023Z,4.80
2023-04-09T23:15:54.957Z,4.17
2023-04-09T23:18:23.057Z,4.47
2023-04-09T23:20:52.353Z,4.20
2023-04-09T23:23:20.270Z,4.37
2023-04-09T23:25:48.123Z,4.53
2023-04-09T23:28:16.003Z,4.70
2023-04-09T23:30:45.331Z,4.13
2023-04-09T23:33:13.173Z,4.43
2023-04-09T23:35:41.192Z,4.77
2023-04-09T23:38:10.604Z,4.57
2023-04-09T23:40:38.504Z,4.40
2023-04-09T23:43:06.464Z,4.60
2023-04-09T23:45:34.402Z,4.17
2023-04-09T23:48:02.415Z,4.20
2023-04-09T23:50:30.506Z,4.83
2023-04-09T23:53:00.076Z,4.70
2023-04-09T23:55:29.334Z,4.00
2023-04-09T23:57:57.374Z,4.47
